createdAt,value
2018-07-31T00:01:14.162Z,7.57
2018-07-31T00:03:43.213Z,8.07
2018-07-31T00:06:18.408Z,7.83
2018-07-31T00:08:48.263Z,8.17
2018-07-31T00:11:17.716Z,8.57
2018-07-31T00:13:47.237Z,8.73
2018-07-31T00:16:16.289Z,7.90
2018-07-31T00:18:45.514Z,7.53
2018-07-31T00:21:14.737Z,7.13
2018-07-31T00:23:43.774Z,7.30
2018-07-31T00:26:13.014Z,7.30
2018-07-31T00:28:42.425Z,7.20
2018-07-31T00:31:11.542Z,7.57
2018-07-31T00:33:40.602Z,8.17
2018-07-31T00:36:09.810Z,7.43
2018-07-31T00:38:38.920Z,8.53
2018-07-31T00:41:08.088Z,8.10
2018-07-31T00:43:37.742Z,8.67
2018-07-31T00:46:06.844Z,8.27
2018-07-31T00:48:35.950Z,8.30
2018-07-31T00:51:05.504Z,8.13
2018-07-31T00:53:34.580Z,8.00
2018-07-31T00:56:03.702Z,8.17
2018-07-31T00:58:33.104Z,8.87
2018-07-31T01:01:02.162Z,8.13
2018-07-31T01:03:31.369Z,8.00
2018-07-31T01:06:00.528Z,8.63
2018-07-31T01:08:29.628Z,7.40
2018-07-31T01:10:58.818Z,8.10
2018-07-31T01:13:28.298Z,7.90
2018-07-31T01:15:57.396Z,8.13
2018-07-31T01:18:26.474Z,7.53
2018-07-31T01:20:55.872Z,7.40
2018-07-31T01:23:24.930Z,8.17
2018-07-31T01:25:54.022Z,7.70
2018-07-31T01:28:23.080Z,8.00
2018-07-31T01:30:52.058Z,7.70
2018-07-31T01:33:21.146Z,7.87
2018-07-31T01:35:50.765Z,7.67
2018-07-31T01:38:19.876Z,8.20
2018-07-31T01:40:50.204Z,7.80
2018-07-31T01:43:19.388Z,7.67
2018-07-31T01:45:48.594Z,8.70
2018-07-31T01:48:17.630Z,7.90
2018-07-31T01:50:47.048Z,7.37
2018-07-31T01:53:16.117Z,8.60
2018-07-31T01:55:45.202Z,8.57
2018-07-31T01:58:14.542Z,8.90
2018-07-31T02:00:43.580Z,8.30
2018-07-31T02:03:12.678Z,8.73
2018-07-31T02:05:42.058Z,8.67
2018-07-31T02:08:11.152Z,8.90
2018-07-31T02:10:40.288Z,8.30
2018-07-31T02:13:10.437Z,8.50
2018-07-31T02:15:39.484Z,8.00
2018-07-31T02:18:08.570Z,8.07
2018-07-31T02:20:37.744Z,8.40
2018-07-31T02:23:06.846Z,8.47
2018-07-31T02:25:35.915Z,8.50
2018-07-31T02:28:05.226Z,8.70
2018-07-31T02:30:34.549Z,9.30
2018-07-31T02:33:03.643Z,8.90
2018-07-31T02:35:32.909Z,8.30
2018-07-31T02:38:02.110Z,9.40
2018-07-31T02:40:31.376Z,8.80
2018-07-31T02:43:00.940Z,8.80
2018-07-31T02:45:30.012Z,8.23
2018-07-31T02:47:59.078Z,8.50
2018-07-31T02:50:28.398Z,9.07
2018-07-31T02:52:57.398Z,8.07
2018-07-31T02:55:26.456Z,8.90
2018-07-31T02:57:55.815Z,8.63
2018-07-31T03:00:24.987Z,9.07
2018-07-31T03:02:54.091Z,8.80
2018-07-31T03:05:23.584Z,9.20
2018-07-31T03:07:52.769Z,9.40
2018-07-31T03:10:22.649Z,9.00
2018-07-31T03:12:52.232Z,9.20
2018-07-31T03:15:21.426Z,9.37
2018-07-31T03:17:50.557Z,9.13
2018-07-31T03:20:19.752Z,8.10
2018-07-31T03:22:48.861Z,8.80
2018-07-31T03:25:17.930Z,8.93
2018-07-31T03:27:47.409Z,8.97
2018-07-31T03:30:16.648Z,8.10
2018-07-31T03:32:45.812Z,9.10
2018-07-31T03:35:15.491Z,8.93
2018-07-31T03:37:44.589Z,9.17
2018-07-31T03:40:13.610Z,8.70
2018-07-31T03:42:43.392Z,9.40
2018-07-31T03:45:12.454Z,9.17
2018-07-31T03:47:41.538Z,8.90
2018-07-31T03:50:10.791Z,9.50
2018-07-31T03:52:39.483Z,9.10
2018-07-31T03:55:08.454Z,9.93
2018-07-31T03:57:38.403Z,9.20
2018-07-31T04:00:07.832Z,9.37
2018-07-31T04:02:36.965Z,10.17
2018-07-31T04:05:06.482Z,9.17
2018-07-31T04:07:35.165Z,9.60
2018-07-31T04:10:04.368Z,9.60
2018-07-31T04:12:33.887Z,10.13
2018-07-31T04:15:03.005Z,8.70
2018-07-31T04:17:32.074Z,9.90
2018-07-31T04:20:01.490Z,9.33
2018-07-31T04:22:30.560Z,9.23
2018-07-31T04:24:59.652Z,9.03
2018-07-31T04:27:29.078Z,9.40
2018-07-31T04:29:58.230Z,10.03
2018-07-31T04:32:27.279Z,9.07
2018-07-31T04:34:56.664Z,9.27
2018-07-31T04:37:25.719Z,8.33
2018-07-31T04:39:54.810Z,9.33
2018-07-31T04:42:23.832Z,8.20
2018-07-31T04:44:52.790Z,9.00
2018-07-31T04:47:21.872Z,8.60
2018-07-31T04:49:51.416Z,9.20
2018-07-31T04:52:20.549Z,9.20
2018-07-31T04:54:49.668Z,9.03
2018-07-31T04:57:19.628Z,9.13
2018-07-31T04:59:48.378Z,9.57
2018-07-31T05:02:17.484Z,10.20
2018-07-31T05:04:47.216Z,9.87
2018-07-31T05:07:16.270Z,9.20
2018-07-31T05:09:45.314Z,9.77
2018-07-31T05:12:15.116Z,9.47
2018-07-31T05:14:44.166Z,10.07
2018-07-31T05:17:13.218Z,9.30
2018-07-31T05:19:42.711Z,8.70
2018-07-31T05:22:11.472Z,9.70
2018-07-31T05:24:40.176Z,10.10
2018-07-31T05:27:09.518Z,9.60
2018-07-31T05:29:38.774Z,9.60
2018-07-31T05:32:07.867Z,9.37
2018-07-31T05:34:37.409Z,9.40
2018-07-31T05:37:06.521Z,9.77
2018-07-31T05:39:35.595Z,9.80
2018-07-31T05:42:04.997Z,10.03
2018-07-31T05:44:34.057Z,10.30
2018-07-31T05:47:03.193Z,10.70
2018-07-31T05:49:32.777Z,10.90
2018-07-31T05:52:01.774Z,10.90
2018-07-31T05:54:30.772Z,11.27
2018-07-31T05:57:00.197Z,11.17
2018-07-31T05:59:29.289Z,10.80
2018-07-31T06:01:58.369Z,10.87
2018-07-31T06:04:27.959Z,10.70
2018-07-31T06:06:56.745Z,10.60
2018-07-31T06:09:25.742Z,11.40
2018-07-31T06:11:55.073Z,11.43
2018-07-31T06:14:24.177Z,11.83
2018-07-31T06:16:53.270Z,10.90
2018-07-31T06:19:22.841Z,11.53
2018-07-31T06:21:51.634Z,11.13
2018-07-31T06:24:20.617Z,11.90
2018-07-31T06:26:49.940Z,11.40
2018-07-31T06:29:19.013Z,11.97
2018-07-31T06:31:48.129Z,11.30
2018-07-31T06:34:17.535Z,11.40
2018-07-31T06:36:46.613Z,10.73
2018-07-31T06:39:15.722Z,11.53
2018-07-31T06:41:45.133Z,12.77
2018-07-31T06:44:14.180Z,13.13
2018-07-31T06:46:43.310Z,13.73
2018-07-31T06:49:12.752Z,13.40
2018-07-31T06:51:41.850Z,12.90
2018-07-31T06:54:10.911Z,12.33
2018-07-31T06:56:40.316Z,11.40
2018-07-31T06:59:09.430Z,11.37
2018-07-31T07:01:38.527Z,11.03
2018-07-31T07:04:07.915Z,11.20
2018-07-31T07:06:36.993Z,10.73
2018-07-31T07:09:09.312Z,10.80
2018-07-31T07:11:38.471Z,9.70
2018-07-31T07:14:07.605Z,9.83
2018-07-31T07:16:37.349Z,9.97
2018-07-31T07:19:06.199Z,9.67
2018-07-31T07:21:35.213Z,10.50
2018-07-31T07:24:04.763Z,9.43
2018-07-31T07:26:33.823Z,10.13
2018-07-31T07:29:02.983Z,11.87
2018-07-31T07:31:32.537Z,11.30
2018-07-31T07:34:01.351Z,10.83
2018-07-31T07:36:30.295Z,9.97
2018-07-31T07:38:59.469Z,10.23
2018-07-31T07:41:28.572Z,9.13
2018-07-31T07:43:57.664Z,10.10
2018-07-31T07:46:27.105Z,9.13
2018-07-31T07:48:56.183Z,10.90
2018-07-31T07:51:25.289Z,10.50
2018-07-31T07:53:54.575Z,10.40
2018-07-31T07:56:23.629Z,10.13
2018-07-31T07:58:53.243Z,9.33
2018-07-31T08:01:22.820Z,10.00
2018-07-31T08:03:52.008Z,9.93
2018-07-31T08:06:21.073Z,9.77
2018-07-31T08:08:50.351Z,10.07
2018-07-31T08:11:19.542Z,10.00
2018-07-31T08:13:48.693Z,10.00
2018-07-31T08:16:17.948Z,10.10
2018-07-31T08:18:48.098Z,9.10
2018-07-31T08:21:16.853Z,9.10
2018-07-31T08:23:46.128Z,8.83
2018-07-31T08:26:15.200Z,9.67
2018-07-31T08:28:44.345Z,10.30
2018-07-31T08:31:13.707Z,8.83
2018-07-31T08:33:42.841Z,9.80
2018-07-31T08:36:11.992Z,9.73
2018-07-31T08:38:41.257Z,9.67
2018-07-31T08:41:10.404Z,9.13
2018-07-31T08:43:39.525Z,9.00
2018-07-31T08:46:08.877Z,9.00
2018-07-31T08:48:37.637Z,9.53
2018-07-31T08:51:07.655Z,8.40
2018-07-31T08:53:36.997Z,9.80
2018-07-31T08:56:06.114Z,9.40
2018-07-31T08:58:35.353Z,9.00
2018-07-31T09:01:04.313Z,8.87
2018-07-31T09:03:33.469Z,9.97
2018-07-31T09:06:02.575Z,8.60
2018-07-31T09:08:31.974Z,8.00
2018-07-31T09:11:01.008Z,8.23
2018-07-31T09:13:30.191Z,8.90
2018-07-31T09:15:59.573Z,8.53
2018-07-31T09:18:28.674Z,9.33
2018-07-31T09:20:57.815Z,8.93
2018-07-31T09:23:27.091Z,8.07
2018-07-31T09:26:00.427Z,9.30
2018-07-31T09:28:30.070Z,8.83
2018-07-31T09:31:04.532Z,8.80
2018-07-31T09:33:33.897Z,8.40
2018-07-31T09:36:03.029Z,8.50
2018-07-31T09:38:32.215Z,8.33
2018-07-31T09:41:01.171Z,8.87
2018-07-31T09:43:30.173Z,9.90
2018-07-31T09:45:59.287Z,8.70
2018-07-31T09:48:28.688Z,10.00
2018-07-31T09:50:57.717Z,9.10
2018-07-31T09:53:26.805Z,8.40
2018-07-31T09:55:59.450Z,8.53
2018-07-31T09:58:29.557Z,8.93
2018-07-31T10:01:04.217Z,8.80
2018-07-31T10:03:33.309Z,8.23
2018-07-31T10:06:03.267Z,8.90
2018-07-31T10:08:32.605Z,8.30
2018-07-31T10:11:01.712Z,8.93
2018-07-31T10:13:31.005Z,9.37
2018-07-31T10:16:00.227Z,8.70
2018-07-31T10:18:29.331Z,7.97
2018-07-31T10:20:58.437Z,8.90
2018-07-31T10:23:27.747Z,7.77
2018-07-31T10:25:56.493Z,8.60
2018-07-31T10:28:25.187Z,7.80
2018-07-31T10:30:54.112Z,8.07
2018-07-31T10:33:23.097Z,8.70
2018-07-31T10:35:52.181Z,8.70
2018-07-31T10:38:21.837Z,8.00
2018-07-31T10:40:50.957Z,8.10
2018-07-31T10:43:20.053Z,7.60
2018-07-31T10:45:49.590Z,7.77
2018-07-31T10:48:18.717Z,7.63
2018-07-31T10:50:47.829Z,7.67
2018-07-31T10:53:17.344Z,7.97
2018-07-31T10:55:46.459Z,7.90
2018-07-31T10:58:16.315Z,7.80
2018-07-31T11:00:45.622Z,8.30
2018-07-31T11:03:14.815Z,7.60
2018-07-31T11:05:43.853Z,8.50
2018-07-31T11:08:13.205Z,8.00
2018-07-31T11:10:42.320Z,7.77
2018-07-31T11:13:11.526Z,7.77
2018-07-31T11:15:40.941Z,8.57
2018-07-31T11:18:10.141Z,7.93
2018-07-31T11:20:39.301Z,7.53
2018-07-31T11:23:08.917Z,7.27
2018-07-31T11:25:38.093Z,6.87
2018-07-31T11:28:07.262Z,6.30
2018-07-31T11:30:36.832Z,6.20
2018-07-31T11:33:05.922Z,6.50
2018-07-31T11:35:35.016Z,6.53
2018-07-31T11:38:04.299Z,6.47
2018-07-31T11:40:33.329Z,6.83
2018-07-31T11:43:02.441Z,6.77
2018-07-31T11:45:31.729Z,6.13
2018-07-31T11:48:00.809Z,6.43
2018-07-31T11:50:29.937Z,6.33
2018-07-31T11:52:59.229Z,5.97
2018-07-31T11:55:28.329Z,5.83
2018-07-31T11:57:57.465Z,6.27
2018-07-31T12:00:26.879Z,6.47
2018-07-31T12:02:56.019Z,6.93
2018-07-31T12:05:24.784Z,7.07
2018-07-31T12:07:53.977Z,6.30
2018-07-31T12:10:23.063Z,6.00
2018-07-31T12:12:52.185Z,6.43
2018-07-31T12:15:21.475Z,6.47
2018-07-31T12:17:50.554Z,6.20
2018-07-31T12:20:19.697Z,5.67
2018-07-31T12:22:49.009Z,5.87
2018-07-31T12:25:18.076Z,5.50
2018-07-31T12:27:47.172Z,5.90
2018-07-31T12:30:16.468Z,6.33
2018-07-31T12:32:45.647Z,6.10
2018-07-31T12:35:14.734Z,5.67
2018-07-31T12:37:44.220Z,6.03
2018-07-31T12:40:13.393Z,5.60
2018-07-31T12:42:42.603Z,6.40
2018-07-31T12:45:11.948Z,6.10
2018-07-31T12:47:41.047Z,5.80
2018-07-31T12:50:10.249Z,5.90
2018-07-31T12:52:39.621Z,5.30
2018-07-31T12:55:08.689Z,5.80
2018-07-31T12:57:38.603Z,5.60
2018-07-31T13:00:07.930Z,6.33
2018-07-31T13:02:37.681Z,5.80
2018-07-31T13:05:07.015Z,5.27
2018-07-31T13:07:36.369Z,5.87
2018-07-31T13:10:05.733Z,6.37
2018-07-31T13:12:34.825Z,5.67
2018-07-31T13:15:04.135Z,5.80
2018-07-31T13:17:33.317Z,5.47
2018-07-31T13:20:02.471Z,6.03
2018-07-31T13:22:31.943Z,5.80
2018-07-31T13:25:01.134Z,6.03
2018-07-31T13:27:30.299Z,5.97
2018-07-31T13:29:59.939Z,5.57
2018-07-31T13:32:29.121Z,6.00
2018-07-31T13:34:58.247Z,6.00
2018-07-31T13:37:27.727Z,6.43
2018-07-31T13:39:56.905Z,5.60
2018-07-31T13:42:26.009Z,6.10
2018-07-31T13:44:55.757Z,5.77
2018-07-31T13:47:24.865Z,5.53
2018-07-31T13:49:54.044Z,5.27
2018-07-31T13:52:23.279Z,5.30
2018-07-31T13:54:52.693Z,5.50
2018-07-31T13:57:21.973Z,5.50
2018-07-31T13:59:51.716Z,5.50
2018-07-31T14:02:20.762Z,6.17
2018-07-31T14:04:49.966Z,5.77
2018-07-31T14:07:19.329Z,5.80
2018-07-31T14:09:48.484Z,5.50
2018-07-31T14:12:17.582Z,5.90
2018-07-31T14:14:46.784Z,5.90
2018-07-31T14:17:15.968Z,5.43
2018-07-31T14:19:46.092Z,5.70
2018-07-31T14:22:15.390Z,5.47
2018-07-31T14:24:44.464Z,5.97
2018-07-31T14:27:13.989Z,6.57
2018-07-31T14:29:43.648Z,5.53
2018-07-31T14:32:12.806Z,5.57
2018-07-31T14:34:41.610Z,6.27
2018-07-31T14:37:10.847Z,5.93
2018-07-31T14:39:40.040Z,5.03
2018-07-31T14:42:09.336Z,5.07
2018-07-31T14:44:38.676Z,5.50
2018-07-31T14:47:07.871Z,5.03
2018-07-31T14:49:37.038Z,4.87
2018-07-31T14:52:06.436Z,5.47
2018-07-31T14:54:35.582Z,5.27
2018-07-31T14:57:04.746Z,5.70
2018-07-31T14:59:34.028Z,5.47
2018-07-31T15:02:03.360Z,5.20
2018-07-31T15:04:32.484Z,5.03
2018-07-31T15:07:01.804Z,5.60
2018-07-31T15:09:30.968Z,4.97
2018-07-31T15:12:00.076Z,5.10
2018-07-31T15:14:29.350Z,5.30
2018-07-31T15:16:58.474Z,5.00
2018-07-31T15:19:27.628Z,5.00
2018-07-31T15:21:57.374Z,5.27
2018-07-31T15:24:26.365Z,5.43
2018-07-31T15:26:55.111Z,5.60
2018-07-31T15:29:24.388Z,4.80
2018-07-31T15:31:53.500Z,5.30
2018-07-31T15:34:22.628Z,4.90
2018-07-31T15:36:51.858Z,4.90
2018-07-31T15:39:21.234Z,5.07
2018-07-31T15:41:50.330Z,5.20
2018-07-31T15:44:20.180Z,5.63
2018-07-31T15:46:49.345Z,4.90
2018-07-31T15:49:18.635Z,4.97
2018-07-31T15:51:48.612Z,5.07
2018-07-31T15:54:17.679Z,5.07
2018-07-31T15:56:46.814Z,5.00
2018-07-31T15:59:16.142Z,4.77
2018-07-31T16:01:44.909Z,4.40
2018-07-31T16:04:13.649Z,4.70
2018-07-31T16:06:43.038Z,4.10
2018-07-31T16:09:12.661Z,4.70
2018-07-31T16:11:41.853Z,4.80
2018-07-31T16:14:11.477Z,4.60
2018-07-31T16:16:40.642Z,4.80
2018-07-31T16:19:09.770Z,5.27
2018-07-31T16:21:39.061Z,5.60
2018-07-31T16:24:08.198Z,4.50
2018-07-31T16:26:37.280Z,4.93
2018-07-31T16:29:06.618Z,5.10
2018-07-31T16:31:35.788Z,4.90
2018-07-31T16:34:05.381Z,5.50
2018-07-31T16:36:34.616Z,5.20
2018-07-31T16:39:05.182Z,5.50
2018-07-31T16:41:33.932Z,5.20
2018-07-31T16:44:03.134Z,5.23
2018-07-31T16:46:32.740Z,5.40
2018-07-31T16:49:01.956Z,6.20
2018-07-31T16:51:31.498Z,5.70
2018-07-31T16:54:00.637Z,5.77
2018-07-31T16:56:29.782Z,5.70
2018-07-31T16:58:59.161Z,5.30
2018-07-31T17:01:28.327Z,5.57
2018-07-31T17:03:57.072Z,5.13
2018-07-31T17:06:26.332Z,5.80
2018-07-31T17:08:57.378Z,5.97
2018-07-31T17:11:26.422Z,4.73
2018-07-31T17:13:55.908Z,5.30
2018-07-31T17:16:25.053Z,5.30
2018-07-31T17:18:53.791Z,5.70
2018-07-31T17:21:23.047Z,4.70
2018-07-31T17:23:52.205Z,5.60
2018-07-31T17:26:21.344Z,5.53
2018-07-31T17:28:50.408Z,5.43
2018-07-31T17:31:19.408Z,5.80
2018-07-31T17:33:48.536Z,5.30
2018-07-31T17:36:18.051Z,5.07
2018-07-31T17:38:47.160Z,5.50
2018-07-31T17:41:16.491Z,5.33
2018-07-31T17:43:45.758Z,6.50
2018-07-31T17:46:15.420Z,5.83
2018-07-31T17:48:44.254Z,5.23
2018-07-31T17:51:13.510Z,5.37
2018-07-31T17:53:42.610Z,5.33
2018-07-31T17:56:11.744Z,5.53
2018-07-31T17:58:41.150Z,5.60
2018-07-31T18:01:10.198Z,5.00
2018-07-31T18:03:39.360Z,5.30
2018-07-31T18:06:08.332Z,5.47
2018-07-31T18:08:37.758Z,4.93
2018-07-31T18:11:06.806Z,5.20
2018-07-31T18:13:36.056Z,5.20
2018-07-31T18:16:05.188Z,5.60
2018-07-31T18:18:34.033Z,5.57
2018-07-31T18:21:03.604Z,7.40
2018-07-31T18:23:32.797Z,5.90
2018-07-31T18:26:01.824Z,6.33
2018-07-31T18:28:31.220Z,6.23
2018-07-31T18:31:00.304Z,6.13
2018-07-31T18:33:29.422Z,6.90
2018-07-31T18:35:58.812Z,7.70
2018-07-31T18:38:27.872Z,8.00
2018-07-31T18:40:57.004Z,7.30
2018-07-31T18:43:26.242Z,8.50
2018-07-31T18:45:55.198Z,5.53
2018-07-31T18:48:24.280Z,6.03
2018-07-31T18:50:53.984Z,6.30
2018-07-31T18:53:23.056Z,6.30
2018-07-31T18:55:52.134Z,6.10
2018-07-31T18:58:21.568Z,7.10
2018-07-31T19:00:50.782Z,6.70
2018-07-31T19:03:19.480Z,7.00
2018-07-31T19:05:48.862Z,7.10
2018-07-31T19:10:53.454Z,6.40
2018-07-31T19:13:22.536Z,48.50
2018-07-31T19:15:51.627Z,28.40
2018-07-31T19:18:21.201Z,7.53
2018-07-31T19:20:50.225Z,7.30
2018-07-31T19:23:19.344Z,7.30
2018-07-31T19:25:48.188Z,6.97
2018-07-31T19:28:17.245Z,6.60
2018-07-31T19:30:46.242Z,7.00
2018-07-31T19:33:15.767Z,7.30
2018-07-31T19:35:44.813Z,7.20
2018-07-31T19:38:13.886Z,5.90
2018-07-31T19:40:43.234Z,7.17
2018-07-31T19:43:11.968Z,6.20
2018-07-31T19:45:41.046Z,7.43
2018-07-31T19:48:10.216Z,6.73
2018-07-31T19:50:39.292Z,6.83
2018-07-31T19:53:08.372Z,6.37
2018-07-31T19:55:37.608Z,6.60
2018-07-31T19:58:06.743Z,7.40
2018-07-31T20:00:35.825Z,6.63
2018-07-31T20:03:05.002Z,6.23
2018-07-31T20:05:34.069Z,6.20
2018-07-31T20:08:03.198Z,6.57
2018-07-31T20:10:32.398Z,6.63
2018-07-31T20:13:01.477Z,7.40
2018-07-31T20:15:30.584Z,9.30
2018-07-31T20:18:00.272Z,7.30
2018-07-31T20:20:29.292Z,7.80
2018-07-31T20:22:58.422Z,6.77
2018-07-31T20:25:27.812Z,6.70
2018-07-31T20:27:56.912Z,6.73
2018-07-31T20:30:25.997Z,6.47
2018-07-31T20:32:55.456Z,7.23
2018-07-31T20:35:24.545Z,6.90
2018-07-31T20:37:53.597Z,6.30
2018-07-31T20:40:23.047Z,6.07
2018-07-31T20:42:52.292Z,7.40
2018-07-31T20:45:21.375Z,6.23
2018-07-31T20:47:50.530Z,6.80
2018-07-31T20:50:19.677Z,7.33
2018-07-31T20:52:48.738Z,6.50
2018-07-31T20:55:18.057Z,6.50
2018-07-31T20:57:47.165Z,6.13
2018-07-31T21:00:16.277Z,5.93
2018-07-31T21:02:45.659Z,6.63
2018-07-31T21:05:14.701Z,6.93
2018-07-31T21:07:43.831Z,6.80
2018-07-31T21:10:12.997Z,6.00
2018-07-31T21:12:42.069Z,5.90
2018-07-31T21:15:11.254Z,6.40
2018-07-31T21:17:40.752Z,6.60
2018-07-31T21:20:09.935Z,6.50
2018-07-31T21:22:39.009Z,6.53
2018-07-31T21:25:08.425Z,6.60
2018-07-31T21:27:37.461Z,6.63
2018-07-31T21:30:06.648Z,7.93
2018-07-31T21:32:36.017Z,6.90
2018-07-31T21:35:05.419Z,8.77
2018-07-31T21:37:34.602Z,6.47
2018-07-31T21:40:03.916Z,6.00
2018-07-31T21:42:32.972Z,6.10
2018-07-31T21:45:02.039Z,6.40
2018-07-31T21:47:31.516Z,6.33
2018-07-31T21:50:00.564Z,6.57
2018-07-31T21:52:29.625Z,7.90
2018-07-31T21:54:59.152Z,6.67
2018-07-31T21:57:28.216Z,8.33
2018-07-31T21:59:57.282Z,7.00
2018-07-31T22:02:26.683Z,6.60
2018-07-31T22:04:55.712Z,6.10
2018-07-31T22:07:24.689Z,6.37
2018-07-31T22:09:54.301Z,6.73
2018-07-31T22:12:23.344Z,6.60
2018-07-31T22:14:52.468Z,6.20
2018-07-31T22:17:21.873Z,6.80
2018-07-31T22:19:50.909Z,6.40
2018-07-31T22:22:19.962Z,7.90
2018-07-31T22:24:49.194Z,6.80
2018-07-31T22:27:18.180Z,6.67
2018-07-31T22:29:47.250Z,6.30
2018-07-31T22:32:16.758Z,6.60
2018-07-31T22:34:45.799Z,7.60
2018-07-31T22:37:14.848Z,6.43
2018-07-31T22:39:44.356Z,6.30
2018-07-31T22:42:13.382Z,9.93
2018-07-31T22:44:42.458Z,7.50
2018-07-31T22:47:12.048Z,6.10
2018-07-31T22:49:41.102Z,6.00
2018-07-31T22:52:10.278Z,6.07
2018-07-31T22:54:39.842Z,6.90
2018-07-31T22:57:08.895Z,6.20
2018-07-31T22:59:37.962Z,6.70
2018-07-31T23:02:07.426Z,7.10
2018-07-31T23:04:36.492Z,6.27
2018-07-31T23:07:05.646Z,6.80
2018-07-31T23:09:34.929Z,6.57
2018-07-31T23:12:04.028Z,6.57
2018-07-31T23:14:33.100Z,6.47
2018-07-31T23:17:02.791Z,6.80
2018-07-31T23:19:31.815Z,5.77
2018-07-31T23:22:00.908Z,6.70
2018-07-31T23:24:30.535Z,6.40
2018-07-31T23:26:59.577Z,6.40
2018-07-31T23:29:28.624Z,6.80
2018-07-31T23:31:57.792Z,6.63
2018-07-31T23:34:26.852Z,6.53
2018-07-31T23:36:55.928Z,6.73
2018-07-31T23:39:25.100Z,6.27
2018-07-31T23:41:54.160Z,7.03
2018-07-31T23:44:23.236Z,6.70
2018-07-31T23:46:52.670Z,7.00
2018-07-31T23:49:21.754Z,6.60
2018-07-31T23:51:50.824Z,7.30
2018-07-31T23:54:19.701Z,7.17
2018-07-31T23:56:48.684Z,7.63
2018-07-31T23:59:17.794Z,6.80
